createdAt,value
2019-04-26T00:00:35.448Z,93810.65
2019-04-26T00:03:09.347Z,93811.96
2019-04-26T00:05:39.094Z,93804.63
2019-04-26T00:08:09.270Z,93799.66
2019-04-26T00:10:52.856Z,93797.30
2019-04-26T00:16:19.549Z,93793.34
2019-04-26T00:18:49.106Z,93796.50
2019-04-26T00:21:18.341Z,93788.12
2019-04-26T00:23:47.327Z,93793.09
2019-04-26T00:26:16.358Z,93793.84
2019-04-26T00:28:44.986Z,93785.92
2019-04-26T00:31:13.671Z,93789.06
2019-04-26T00:33:42.320Z,93780.66
2019-04-26T00:36:11.012Z,93785.06
2019-04-26T00:38:40.390Z,93785.84
2019-04-26T00:41:09.958Z,93777.24
2019-04-26T00:43:38.671Z,93775.43
2019-04-26T00:46:07.974Z,93770.20
2019-04-26T00:48:38.275Z,93763.38
2019-04-26T00:51:07.490Z,93764.41
2019-04-26T00:53:37.566Z,93766.49
2019-04-26T00:56:07.208Z,93771.20
2019-04-26T00:58:35.872Z,93774.34
2019-04-26T01:01:04.539Z,93776.70
2019-04-26T01:03:33.148Z,93769.64
2019-04-26T01:06:03.639Z,93768.83
2019-04-26T01:08:32.301Z,93763.84
2019-04-26T01:11:00.928Z,93764.23
2019-04-26T01:13:29.751Z,93761.05
2019-04-26T01:15:58.502Z,93759.97
2019-04-26T01:18:27.253Z,93760.51
2019-04-26T01:20:57.218Z,93747.42
2019-04-26T01:23:28.224Z,93743.20
2019-04-26T01:26:02.010Z,93741.68
2019-04-26T01:28:39.813Z,93735.19
2019-04-26T01:31:08.703Z,93740.62
2019-04-26T01:33:38.905Z,93740.02
2019-04-26T01:36:13.216Z,93736.53
2019-04-26T01:38:38.759Z,93731.48
2019-04-26T01:41:09.623Z,93732.48
2019-04-26T01:43:40.320Z,93734.51
2019-04-26T01:46:13.734Z,93726.20
2019-04-26T01:49:06.002Z,93727.05
2019-04-26T01:51:37.714Z,93725.54
2019-04-26T01:54:07.331Z,93727.45
2019-04-26T01:56:37.218Z,93732.84
2019-04-26T01:59:08.153Z,93731.27
2019-04-26T02:01:42.934Z,93724.56
2019-04-26T02:04:12.395Z,93727.43
2019-04-26T02:06:41.079Z,93728.88
2019-04-26T02:09:10.914Z,93728.55
2019-04-26T02:11:40.687Z,93728.52
2019-04-26T02:14:09.403Z,93730.13
2019-04-26T02:16:38.754Z,93723.61
2019-04-26T02:19:07.402Z,93716.72
2019-04-26T02:21:37.617Z,93712.70
2019-04-26T02:24:10.862Z,93714.25
2019-04-26T02:26:42.507Z,93710.99
2019-04-26T02:29:20.414Z,93714.17
2019-04-26T02:31:54.177Z,93711.28
2019-04-26T02:34:22.949Z,93703.98
2019-04-26T02:36:57.742Z,93706.06
2019-04-26T02:39:34.091Z,93703.69
2019-04-26T02:42:05.149Z,93698.22
2019-04-26T02:44:37.154Z,93695.34
2019-04-26T02:47:30.464Z,93704.20
2019-04-26T02:50:08.111Z,93701.03
2019-04-26T02:52:45.513Z,93708.83
2019-04-26T02:55:36.853Z,93712.18
2019-04-26T02:58:02.576Z,93716.23
2019-04-26T03:00:32.184Z,93706.34
2019-04-26T03:03:04.622Z,93694.55
2019-04-26T03:05:37.470Z,93697.75
2019-04-26T03:08:08.899Z,93696.13
2019-04-26T03:10:40.634Z,93695.88
2019-04-26T03:13:12.972Z,93701.78
2019-04-26T03:15:52.337Z,93700.77
2019-04-26T03:18:41.533Z,93697.81
2019-04-26T03:21:40.490Z,93690.92
2019-04-26T03:24:37.232Z,93688.83
2019-04-26T03:27:18.945Z,93682.32
2019-04-26T03:30:19.309Z,93684.10
2019-04-26T03:32:55.713Z,93691.36
2019-04-26T03:35:57.071Z,93693.89
2019-04-26T03:38:38.266Z,93700.57
2019-04-26T03:41:21.707Z,93693.61
2019-04-26T03:43:59.455Z,93688.41
2019-04-26T03:46:33.589Z,93696.06
2019-04-26T03:49:06.735Z,93694.73
2019-04-26T03:51:39.610Z,93685.35
2019-04-26T03:54:24.086Z,93679.69
2019-04-26T03:56:59.990Z,93688.28
2019-04-26T03:59:33.282Z,93681.41
2019-04-26T04:02:11.823Z,93673.91
2019-04-26T04:04:45.363Z,93666.23
2019-04-26T04:07:17.167Z,93671.31
2019-04-26T04:09:48.889Z,93686.59
2019-04-26T04:12:32.429Z,93672.98
2019-04-26T04:15:37.938Z,93677.23
2019-04-26T04:18:10.814Z,93673.38
2019-04-26T04:20:53.332Z,93675.87
2019-04-26T04:23:33.994Z,93673.88
2019-04-26T04:26:05.696Z,93678.06
2019-04-26T04:28:49.967Z,93682.55
2019-04-26T04:31:28.194Z,93671.66
2019-04-26T04:34:18.943Z,93666.48
2019-04-26T04:36:51.382Z,93661.37
2019-04-26T04:39:28.828Z,93656.86
2019-04-26T04:42:23.094Z,93657.03
2019-04-26T04:45:23.510Z,93680.41
2019-04-26T04:48:19.016Z,93674.61
2019-04-26T04:51:13.310Z,93681.73
2019-04-26T04:53:54.210Z,93679.09
2019-04-26T04:56:54.513Z,93675.24
2019-04-26T04:59:28.799Z,93671.95
2019-04-26T05:02:17.414Z,93681.91
2019-04-26T05:05:23.454Z,93683.48
2019-04-26T05:08:07.085Z,93702.12
2019-04-26T05:10:42.059Z,93701.30
2019-04-26T05:13:28.202Z,93688.11
2019-04-26T05:16:32.979Z,93695.39
2019-04-26T05:19:27.333Z,93698.15
2019-04-26T05:22:04.981Z,93694.87
2019-04-26T05:24:55.359Z,93678.26
2019-04-26T05:27:48.480Z,93682.66
2019-04-26T05:30:36.581Z,93693.95
2019-04-26T05:33:17.429Z,93690.08
2019-04-26T05:36:10.385Z,93684.45
2019-04-26T05:38:42.206Z,93689.95
2019-04-26T05:41:49.610Z,93674.89
2019-04-26T05:44:45.536Z,93682.84
2019-04-26T05:47:33.400Z,93681.17
2019-04-26T05:50:21.657Z,93681.23
2019-04-26T05:53:44.581Z,93672.63
2019-04-26T05:56:20.642Z,93666.86
2019-04-26T05:59:10.252Z,93660.44
2019-04-26T06:01:52.053Z,93652.06
2019-04-26T06:04:26.074Z,93660.44
2019-04-26T06:07:36.979Z,93660.19
2019-04-26T06:10:19.085Z,93671.30
2019-04-26T06:13:20.203Z,93672.99
2019-04-26T06:16:22.002Z,93675.42
2019-04-26T06:19:16.708Z,93661.14
2019-04-26T06:22:05.003Z,93663.65
2019-04-26T06:24:36.713Z,93657.22
2019-04-26T06:27:35.498Z,93655.42
2019-04-26T06:30:12.814Z,93647.84
2019-04-26T06:32:56.155Z,93652.29
2019-04-26T06:35:21.499Z,93652.20
2019-04-26T06:38:15.663Z,93643.69
2019-04-26T06:41:02.655Z,93643.27
2019-04-26T06:43:35.616Z,93628.22
2019-04-26T06:46:11.759Z,93637.62
2019-04-26T06:48:49.546Z,93642.31
2019-04-26T06:51:25.183Z,93642.88
2019-04-26T06:54:19.540Z,93635.03
2019-04-26T06:57:14.880Z,93629.05
2019-04-26T06:59:51.635Z,93626.16
2019-04-26T07:02:38.227Z,93627.47
2019-04-26T07:05:22.080Z,93627.75
2019-04-26T07:08:19.829Z,93622.52
2019-04-26T07:11:11.749Z,93626.41
2019-04-26T07:14:06.870Z,93624.58
2019-04-26T07:16:54.973Z,93625.36
2019-04-26T07:20:04.288Z,93627.69
2019-04-26T07:23:10.834Z,93634.97
2019-04-26T07:25:53.118Z,93630.66
2019-04-26T07:28:46.682Z,93630.31
2019-04-26T07:31:29.700Z,93628.00
2019-04-26T07:34:09.463Z,93629.34
2019-04-26T07:36:53.164Z,93626.59
2019-04-26T07:39:38.217Z,93639.64
2019-04-26T07:42:35.514Z,93636.56
2019-04-26T07:45:25.071Z,93634.09
2019-04-26T07:48:19.288Z,93645.91
2019-04-26T07:51:16.659Z,93645.11
2019-04-26T07:53:58.301Z,93638.72
2019-04-26T07:56:42.422Z,93635.43
2019-04-26T07:59:30.896Z,93636.97
2019-04-26T08:02:29.282Z,93636.37
2019-04-26T08:05:09.431Z,93637.22
2019-04-26T08:07:43.954Z,93628.45
2019-04-26T08:10:20.216Z,93635.91
2019-04-26T08:12:55.006Z,93626.17
2019-04-26T08:15:40.357Z,93633.01
2019-04-26T08:18:11.756Z,93629.77
2019-04-26T08:20:45.049Z,93630.41
2019-04-26T08:23:37.333Z,93631.65
2019-04-26T08:25:48.722Z,93635.14
2019-04-26T08:28:19.040Z,93633.01
2019-04-26T08:30:50.273Z,93631.73
2019-04-26T08:33:23.672Z,93628.59
2019-04-26T08:35:54.102Z,93628.73
2019-04-26T08:38:23.350Z,93637.58
2019-04-26T08:40:53.166Z,93638.58
2019-04-26T08:43:33.124Z,93634.36
2019-04-26T08:46:23.737Z,93635.70
2019-04-26T08:48:58.128Z,93637.34
2019-04-26T08:51:28.815Z,93642.05
2019-04-26T08:53:59.976Z,93641.42
2019-04-26T08:56:43.335Z,93649.59
2019-04-26T08:59:28.159Z,93642.77
2019-04-26T09:02:05.047Z,93641.27
2019-04-26T09:04:53.250Z,93638.86
2019-04-26T09:07:31.580Z,93638.12
2019-04-26T09:10:10.788Z,93626.64
2019-04-26T09:12:34.568Z,93633.00
2019-04-26T09:15:10.730Z,93628.95
2019-04-26T09:17:39.359Z,93629.14
2019-04-26T09:20:09.616Z,93623.72
2019-04-26T09:22:43.255Z,93627.56
2019-04-26T09:25:13.571Z,93624.10
2019-04-26T09:27:53.614Z,93622.02
2019-04-26T09:30:34.003Z,93621.72
2019-04-26T09:33:03.034Z,93626.84
2019-04-26T09:35:32.827Z,93624.66
2019-04-26T09:38:02.359Z,93625.67
2019-04-26T09:40:32.594Z,93620.10
2019-04-26T09:43:16.691Z,93620.06
2019-04-26T09:46:03.204Z,93621.52
2019-04-26T09:48:33.482Z,93617.99
2019-04-26T09:51:03.306Z,93615.19
2019-04-26T09:53:31.960Z,93621.66
2019-04-26T09:56:00.712Z,93607.67
2019-04-26T09:58:30.823Z,93611.20
2019-04-26T10:00:59.964Z,93601.03
2019-04-26T10:03:28.600Z,93606.82
2019-04-26T10:05:57.310Z,93603.89
2019-04-26T10:08:26.040Z,93610.58
2019-04-26T10:10:57.296Z,93615.28
2019-04-26T10:13:29.817Z,93611.31
2019-04-26T10:16:02.543Z,93606.20
2019-04-26T10:18:31.065Z,93601.54
2019-04-26T10:21:01.472Z,93601.64
2019-04-26T10:23:30.168Z,93604.49
2019-04-26T10:25:58.835Z,93599.19
2019-04-26T10:28:27.575Z,93601.61
2019-04-26T10:30:56.277Z,93595.83
2019-04-26T10:33:28.826Z,93584.42
2019-04-26T10:35:57.944Z,93584.95
2019-04-26T10:38:27.102Z,93582.10
2019-04-26T10:40:55.752Z,93576.91
2019-04-26T10:43:24.370Z,93572.09
2019-04-26T10:45:54.063Z,93566.96
2019-04-26T10:48:25.711Z,93567.84
2019-04-26T10:50:53.904Z,93561.83
2019-04-26T10:53:25.656Z,93560.80
2019-04-26T10:56:12.616Z,93562.66
2019-04-26T10:58:45.731Z,93563.73
2019-04-26T11:01:16.174Z,93564.57
2019-04-26T11:03:45.306Z,93561.09
2019-04-26T11:06:13.991Z,93565.64
2019-04-26T11:08:45.194Z,93561.09
2019-04-26T11:11:14.258Z,93549.39
2019-04-26T11:13:42.921Z,93547.40
2019-04-26T11:16:11.735Z,93541.22
2019-04-26T11:18:42.518Z,93552.81
2019-04-26T11:21:10.890Z,93547.01
2019-04-26T11:23:45.011Z,93544.13
2019-04-26T11:26:11.472Z,93544.65
2019-04-26T11:28:42.005Z,93528.57
2019-04-26T11:31:10.639Z,93531.66
2019-04-26T11:33:44.681Z,93532.42
2019-04-26T11:36:09.771Z,93532.75
2019-04-26T11:38:39.109Z,93527.88
2019-04-26T11:41:07.972Z,93524.13
2019-04-26T11:43:38.817Z,93512.59
2019-04-26T11:46:07.079Z,93520.31
2019-04-26T11:48:35.890Z,93511.84
2019-04-26T11:51:04.540Z,93504.33
2019-04-26T11:53:33.653Z,93506.45
2019-04-26T11:56:04.436Z,93488.09
2019-04-26T11:58:33.037Z,93497.95
2019-04-26T12:01:03.250Z,93476.24
2019-04-26T12:03:31.983Z,93469.91
2019-04-26T12:06:02.234Z,93472.80
2019-04-26T12:08:32.407Z,93460.00
2019-04-26T12:11:01.089Z,93454.00
2019-04-26T12:13:30.580Z,93453.55
2019-04-26T12:15:59.299Z,93449.38
2019-04-26T12:18:28.060Z,93451.72
2019-04-26T12:20:57.128Z,93449.00
2019-04-26T12:23:27.187Z,93445.82
2019-04-26T12:25:56.713Z,93438.37
2019-04-26T12:28:25.760Z,93436.91
2019-04-26T12:30:58.627Z,93437.90
2019-04-26T12:33:25.150Z,93430.94
2019-04-26T12:35:57.205Z,93430.12
2019-04-26T12:38:28.353Z,93439.85
2019-04-26T12:40:54.967Z,93438.69
2019-04-26T12:43:24.566Z,93438.84
2019-04-26T12:45:55.563Z,93438.82
2019-04-26T12:48:26.045Z,93431.73
2019-04-26T12:50:54.782Z,93426.77
2019-04-26T12:53:26.760Z,93425.59
2019-04-26T12:55:58.126Z,93430.05
2019-04-26T12:58:24.273Z,93424.44
2019-04-26T13:00:54.525Z,93424.52
2019-04-26T13:03:24.863Z,93419.59
2019-04-26T13:05:58.235Z,93414.70
2019-04-26T13:08:24.429Z,93413.83
2019-04-26T13:11:00.758Z,93412.83
2019-04-26T13:13:33.882Z,93399.02
2019-04-26T13:16:21.544Z,93408.73
2019-04-26T13:18:50.732Z,93396.88
2019-04-26T13:21:19.357Z,93388.77
2019-04-26T13:23:49.094Z,93386.14
2019-04-26T13:26:17.816Z,93379.41
2019-04-26T13:28:46.506Z,93375.52
2019-04-26T13:31:15.228Z,93372.73
2019-04-26T13:33:45.437Z,93371.45
2019-04-26T13:36:14.531Z,93377.58
2019-04-26T13:38:45.065Z,93377.98
2019-04-26T13:41:13.957Z,93371.34
2019-04-26T13:43:44.816Z,93367.43
2019-04-26T13:46:24.215Z,93361.41
2019-04-26T13:48:57.914Z,93352.05
2019-04-26T13:51:28.234Z,93355.05
2019-04-26T13:53:56.943Z,93354.16
2019-04-26T13:56:25.591Z,93344.78
2019-04-26T13:58:58.161Z,93342.42
2019-04-26T14:01:24.897Z,93344.64
2019-04-26T14:03:54.473Z,93356.95
2019-04-26T14:06:23.351Z,93366.55
2019-04-26T14:08:53.986Z,93369.66
2019-04-26T14:11:28.026Z,93370.23
2019-04-26T14:13:55.403Z,93374.46
2019-04-26T14:16:23.762Z,93376.42
2019-04-26T14:18:53.617Z,93381.12
2019-04-26T14:21:22.411Z,93388.13
2019-04-26T14:23:58.367Z,93391.16
2019-04-26T14:26:28.706Z,93387.75
2019-04-26T14:28:59.445Z,93385.02
2019-04-26T14:31:28.933Z,93391.48
2019-04-26T14:34:01.309Z,93396.16
2019-04-26T14:36:29.997Z,93405.27
2019-04-26T14:39:06.103Z,93395.54
2019-04-26T14:41:31.591Z,93403.07
2019-04-26T14:44:14.457Z,93410.91
2019-04-26T14:46:31.332Z,93406.77
2019-04-26T14:49:03.958Z,93409.70
2019-04-26T14:51:30.325Z,93411.51
2019-04-26T14:53:59.068Z,93413.63
2019-04-26T14:56:29.425Z,93422.45
2019-04-26T14:59:01.714Z,93418.41
2019-04-26T15:01:36.930Z,93423.03
2019-04-26T15:04:23.262Z,93422.67
2019-04-26T15:06:58.113Z,93428.59
2019-04-26T15:09:33.253Z,93437.84
2019-04-26T15:12:00.916Z,93443.41
2019-04-26T15:14:24.769Z,93458.91
2019-04-26T15:16:54.689Z,93461.14
2019-04-26T15:19:23.364Z,93449.13
2019-04-26T15:21:53.004Z,93466.39
2019-04-26T15:24:22.645Z,93468.00
2019-04-26T15:26:51.667Z,93471.38
2019-04-26T15:29:26.840Z,93468.26
2019-04-26T15:31:53.634Z,93477.93
2019-04-26T15:34:26.608Z,93487.09
2019-04-26T15:36:54.370Z,93489.51
2019-04-26T15:39:25.204Z,93503.52
2019-04-26T15:42:10.973Z,93504.79
2019-04-26T15:45:01.924Z,93516.64
2019-04-26T15:47:42.266Z,93524.03
2019-04-26T15:50:13.437Z,93532.39
2019-04-26T15:52:43.774Z,93531.48
2019-04-26T15:55:13.379Z,93550.09
2019-04-26T15:57:44.862Z,93554.84
2019-04-26T16:00:14.372Z,93563.01
2019-04-26T16:02:43.021Z,93566.88
2019-04-26T16:05:13.442Z,93560.63
2019-04-26T16:07:42.986Z,93570.63
2019-04-26T16:10:14.188Z,93581.51
2019-04-26T16:12:44.405Z,93590.87
2019-04-26T16:15:14.881Z,93591.73
2019-04-26T16:17:43.580Z,93601.83
2019-04-26T16:20:13.639Z,93619.07
2019-04-26T16:22:43.043Z,93630.39
2019-04-26T16:25:12.776Z,93635.19
2019-04-26T16:27:43.111Z,93648.53
2019-04-26T16:30:17.843Z,93640.61
2019-04-26T16:32:58.932Z,93668.80
2019-04-26T16:35:28.608Z,93685.32
2019-04-26T16:38:00.151Z,93708.69
2019-04-26T16:40:28.958Z,93711.31
2019-04-26T16:42:59.787Z,93715.27
2019-04-26T16:45:28.687Z,93711.02
2019-04-26T16:47:57.512Z,93729.03
2019-04-26T16:50:31.440Z,93742.80
2019-04-26T16:52:56.707Z,93741.48
2019-04-26T16:55:25.398Z,93749.84
2019-04-26T16:57:58.045Z,93740.52
2019-04-26T17:00:47.225Z,93746.56
2019-04-26T17:03:02.715Z,93773.28
2019-04-26T17:05:45.443Z,93785.47
2019-04-26T17:07:58.846Z,93784.05
2019-04-26T17:10:27.057Z,93794.63
2019-04-26T17:12:55.891Z,93805.23
2019-04-26T17:15:24.681Z,93820.48
2019-04-26T17:17:54.060Z,93837.30
2019-04-26T17:20:23.290Z,93835.41
2019-04-26T17:22:59.401Z,93838.91
2019-04-26T17:25:32.637Z,93837.52
2019-04-26T17:28:03.306Z,93854.61
2019-04-26T17:30:40.829Z,93863.67
2019-04-26T17:33:05.850Z,93862.39
2019-04-26T17:35:36.619Z,93861.47
2019-04-26T17:38:06.141Z,93865.73
2019-04-26T17:40:39.182Z,93863.34
2019-04-26T17:43:09.705Z,93881.63
2019-04-26T17:45:40.832Z,93889.70
2019-04-26T17:48:12.860Z,93900.13
2019-04-26T17:50:42.371Z,93904.27
2019-04-26T17:53:16.142Z,93912.06
2019-04-26T17:55:45.849Z,93913.97
2019-04-26T17:58:17.820Z,93918.72
2019-04-26T18:00:47.617Z,93930.08
2019-04-26T18:03:17.047Z,93930.55
2019-04-26T18:05:56.704Z,93944.56
2019-04-26T18:08:36.047Z,93953.06
2019-04-26T18:10:49.188Z,93958.37
2019-04-26T18:13:21.400Z,93955.93
2019-04-26T18:15:50.050Z,93951.11
2019-04-26T18:18:23.355Z,93948.09
2019-04-26T18:21:13.008Z,93960.11
2019-04-26T18:23:40.337Z,93964.75
2019-04-26T18:26:09.567Z,93974.42
2019-04-26T18:28:40.128Z,93992.72
2019-04-26T18:31:14.557Z,93995.25
2019-04-26T18:33:42.574Z,94002.59
2019-04-26T18:36:14.553Z,94010.39
2019-04-26T18:38:48.490Z,94018.41
2019-04-26T18:41:15.760Z,94015.03
2019-04-26T18:43:46.392Z,94026.35
2019-04-26T18:46:20.407Z,94033.02
2019-04-26T18:48:49.548Z,94032.56
2019-04-26T18:51:18.651Z,94047.47
2019-04-26T18:53:53.197Z,94048.17
2019-04-26T18:56:23.960Z,94059.24
2019-04-26T18:58:55.669Z,94067.20
2019-04-26T19:01:24.482Z,94071.72
2019-04-26T19:03:54.146Z,94075.13
2019-04-26T19:06:29.688Z,94081.33
2019-04-26T19:08:57.637Z,94083.99
2019-04-26T19:11:25.086Z,94082.33
2019-04-26T19:14:12.984Z,94084.78
2019-04-26T19:16:40.700Z,94084.41
2019-04-26T19:19:22.792Z,94089.75
2019-04-26T19:21:52.636Z,94075.39
2019-04-26T19:24:23.059Z,94095.31
2019-04-26T19:26:53.404Z,94096.73
2019-04-26T19:29:31.314Z,94100.05
2019-04-26T19:31:56.588Z,94105.97
2019-04-26T19:34:26.093Z,94107.06
2019-04-26T19:36:59.713Z,94107.84
2019-04-26T19:39:32.254Z,94113.28
2019-04-26T19:41:58.668Z,94112.78
2019-04-26T19:44:28.423Z,94122.39
2019-04-26T19:47:13.970Z,94134.23
2019-04-26T19:49:44.176Z,94134.06
2019-04-26T19:52:24.645Z,94137.24
2019-04-26T19:55:12.283Z,94129.63
2019-04-26T19:58:01.996Z,94134.57
2019-04-26T20:00:32.214Z,94134.86
2019-04-26T20:03:01.921Z,94126.38
2019-04-26T20:05:32.065Z,94120.38
2019-04-26T20:08:02.934Z,94125.61
2019-04-26T20:10:40.205Z,94126.08
2019-04-26T20:13:07.517Z,94118.27
2019-04-26T20:15:36.574Z,94114.16
2019-04-26T20:18:05.805Z,94124.95
2019-04-26T20:20:36.263Z,94131.92
2019-04-26T20:23:07.801Z,94135.92
2019-04-26T20:25:36.150Z,94139.68
2019-04-26T20:28:06.584Z,94141.48
2019-04-26T20:30:46.060Z,94133.03
2019-04-26T20:33:15.807Z,94130.85
2019-04-26T20:35:45.017Z,94145.16
2019-04-26T20:38:13.802Z,94142.14
2019-04-26T20:40:43.442Z,94141.30
2019-04-26T20:43:23.786Z,94134.81
2019-04-26T20:46:07.996Z,94142.01
2019-04-26T20:48:16.755Z,94139.70
2019-04-26T20:50:45.872Z,94138.48
2019-04-26T20:53:15.180Z,94134.59
2019-04-26T20:55:43.847Z,94136.69
2019-04-26T20:58:13.611Z,94130.20
2019-04-26T21:00:53.769Z,94140.69
2019-04-26T21:03:22.735Z,94144.12
2019-04-26T21:05:46.422Z,94147.37
2019-04-26T21:08:14.319Z,94143.19
2019-04-26T21:10:43.006Z,94147.00
2019-04-26T21:13:12.197Z,94148.23
2019-04-26T21:15:53.493Z,94150.29
2019-04-26T21:18:12.510Z,94157.31
2019-04-26T21:20:42.521Z,94161.27
2019-04-26T21:23:13.231Z,94156.08
2019-04-26T21:26:02.784Z,94163.23
2019-04-26T21:28:38.057Z,94176.20
2019-04-26T21:31:09.110Z,94173.81
2019-04-26T21:33:48.601Z,94178.41
2019-04-26T21:36:36.329Z,94175.70
2019-04-26T21:39:07.313Z,94173.06
2019-04-26T21:41:40.329Z,94179.72
2019-04-26T21:44:12.279Z,94176.63
2019-04-26T21:46:39.340Z,94175.49
2019-04-26T21:49:08.160Z,94166.80
2019-04-26T21:51:36.958Z,94163.61
2019-04-26T21:54:05.635Z,94165.24
2019-04-26T21:56:34.418Z,94158.62
2019-04-26T21:59:05.055Z,94170.26
2019-04-26T22:01:34.453Z,94167.62
2019-04-26T22:04:03.195Z,94158.83
2019-04-26T22:06:33.473Z,94166.16
2019-04-26T22:09:07.139Z,94164.65
2019-04-26T22:11:35.847Z,94159.55
2019-04-26T22:14:06.499Z,94165.66
2019-04-26T22:16:53.381Z,94165.95
2019-04-26T22:19:32.473Z,94159.42
2019-04-26T22:22:07.923Z,94150.34
2019-04-26T22:24:44.117Z,94144.45
2019-04-26T22:27:13.373Z,94142.98
2019-04-26T22:29:43.648Z,94130.94
2019-04-26T22:32:17.760Z,94132.45
2019-04-26T22:34:46.353Z,94126.30
2019-04-26T22:37:28.800Z,94128.17
2019-04-26T22:39:46.704Z,94121.36
2019-04-26T22:42:16.102Z,94117.67
2019-04-26T22:44:53.917Z,94119.81
2019-04-26T22:47:40.887Z,94126.20
2019-04-26T22:50:07.251Z,94127.02
2019-04-26T22:52:35.936Z,94127.56
2019-04-26T22:55:07.023Z,94134.05
2019-04-26T22:57:35.976Z,94125.27
2019-04-26T23:00:05.554Z,94120.47
2019-04-26T23:02:34.265Z,94120.47
2019-04-26T23:05:05.974Z,94122.42
2019-04-26T23:07:35.124Z,94118.42
2019-04-26T23:10:05.758Z,94127.22
2019-04-26T23:12:36.887Z,94133.16
2019-04-26T23:15:30.071Z,94136.53
2019-04-26T23:18:03.639Z,94139.29
2019-04-26T23:20:50.941Z,94142.67
2019-04-26T23:23:19.877Z,94135.36
2019-04-26T23:25:49.179Z,94145.31
2019-04-26T23:28:18.000Z,94135.58
2019-04-26T23:30:46.995Z,94131.27
2019-04-26T23:33:15.705Z,94121.60
2019-04-26T23:35:47.571Z,94121.94
2019-04-26T23:38:15.479Z,94119.13
2019-04-26T23:40:44.164Z,94115.65
2019-04-26T23:43:13.047Z,94125.52
2019-04-26T23:45:48.317Z,94137.41
2019-04-26T23:48:13.371Z,94140.84
2019-04-26T23:50:43.031Z,94137.45
2019-04-26T23:53:11.794Z,94140.46
2019-04-26T23:55:42.543Z,94132.64
2019-04-26T23:58:13.837Z,94129.50
